Terminal Aerodrome Forecast
Issued by NWS Sioux Falls, SD

Home | Current Version | Previous Version | Graphics & Text | Print | Product List | Glossary On
Versions: 1 2 3 4 5 6 7 8 9 10 11 12 13 14 15 16
881
FTUS43 KFSD 160818 AAA
TAFFSD
TAF AMD
KFSD 160818Z 1608/1706 10007KT P6SM SCT006 OVC013
     FM160900 12005KT P6SM VCSH SCT013 OVC100
     FM161200 13007KT 4SM SHRA BR BKN020 OVC050
     FM161500 14007KT P6SM OVC015
     FM161800 19005KT P6SM OVC030
     FM162000 28006KT P6SM OVC040=

USA.gov is the U.S. government's official web portal to all federal, state and local government web resources and services.